Aeroporto :
LOGIN :

Iscrizione | Disclaimer

   EN    FR    IT 

 










Sommario :    VFR   VFR Marginale   IFR   IFR Intensivo   IFR Molto Intensivo
Visibilità : 
Base nubi : 
>= 8 km
>= 3000ft
5 / 8 km
1000 / 3000 ft
1500m / 5 km
500 / 1000 ft
800 / 1500m
200 / 500 ft
< 800m
< 200 ft
Simboli :   Temporali  Nebbia  Neve Forte  Precipitazioni Forti  Vento > 20 kt
SIGMETs :   Varie  Temporali  Ghiacco  Turbolenza  Onda orograficha  Ceneri Vulcaniche







- Altitudine del aeroporto : 505 ft
- Codice IATA : SXB
- Carte del aeroporto


LFST - Strasbourg

ULTIMO METAR :
  • 191400Z AUTO 02004KT 9999 FEW032 OVC050 10/05 Q1022 NOSIG

METARs OBSOLETI :
  • 191330Z AUTO 36004KT 9999 BKN031 BKN039 OVC052 09/05 Q1022 NOSIG
  • 191300Z AUTO 33004KT 290V010 9999 SCT035 BKN041 OVC047 09/05 Q1022 NOSIG
  • 191230Z AUTO 33004KT 300V360 9999 -RADZ BKN036 OVC043 09/05 Q1022 NOSIG
  • 191200Z AUTO 31005KT 270V340 9999 OVC036 10/04 Q1022 NOSIG
  • 191130Z AUTO VRB02KT 9999 BKN036 OVC052 10/04 Q1022 NOSIG

TAF TAF LFST
Valido dal 19 a 12 ore il 20 a 12 ore UTC


191100Z 1912/2012 26004KT 9999 BKN040
TEMPO 1921/2011 4000 BR
PROB40
TEMPO 2001/2009 0400 FG VV///
PROB40
TEMPO 2009/2011 BKN003
Nessun NOTAM noto per questo aeroporto.



MetMap, La meteo Aeronautica in un colpo d'occhio ! - Copyright ORBIFLY Dicembre 2007 - Disclaimer

ORBIFLY MET'MAP TEAM :

Programmazione e sviluppo : Alexandra Zaïnal
Concezione e sviluppo : Baudouin d'Aumeries
Co-Programmazione e sviluppo : Marc-Olivier Méhu
Supporto tecnico e logistico : Manuel Goepfert
Aiuto per la traduzione : Arnaldo La Scala

Contatto : metmap@orbifly.com




FONTI E CREDITI :

   NOAA